KPWK/PWK METAR and TAF weather

Enter ICAO airport designator
Station Type Date Time Source
KPWK METAR 2019/02/16 17:52 UTC NOAA

KPWK 161752Z 36005KT 10SM OVC026 M02/M07 A3014 RMK AO2 SLP214 T10171072 11011 21100 50001


Station Type Date Time Source
KPWK Decoded METAR 2019/02/16 17:52 UTC NOAA

CHICAGO EXECUTIVE AIRPORT, IL, United States (KPWK) 42-07N 087-54W 203M
Feb 16, 2019 - 12:52 PM EST / 2019.02.16 1752 UTC
Wind: from the N (360 degrees) at 6 MPH (5 KT):0
Visibility: 10 mile(s):0
Sky conditions: overcast
Temperature: 28.9 F (-1.7 C)
Windchill: 23 F (-5 C):1
Dew Point: 19.0 F (-7.2 C)
Relative Humidity: 66%
Pressure (altimeter): 30.14 in. Hg (1020 hPa)
Pressure tendency: 0.00 inches (0.1 hPa) higher than three hours ago
ob: KPWK 161752Z 36005KT 10SM OVC026 M02/M07 A3014 RMK AO2 SLP214 T10171072 11011 21100 50001
cycle: 18

Station Type Date Time Source
KPWK TAF UTC NOAA

Error!


Example: see airport list